sensor_id;sensor_type;location;lat;lon;timestamp;P1;durP1;ratioP1;P2;durP2;ratioP2
705;SDS011;21234;48.690;9.016;2023-03-04T00:00:05;39.13;;;21.33;;
705;SDS011;21234;48.690;9.016;2023-03-04T00:02:33;30.57;;;20.30;;
705;SDS011;21234;48.690;9.016;2023-03-04T00:05:00;36.67;;;21.60;;
705;SDS011;21234;48.690;9.016;2023-03-04T00:07:27;28.57;;;19.50;;
705;SDS011;21234;48.690;9.016;2023-03-04T00:09:54;34.30;;;22.37;;
705;SDS011;21234;48.690;9.016;2023-03-04T00:12:21;38.97;;;22.60;;
705;SDS011;21234;48.690;9.016;2023-03-04T00:14:49;41.33;;;20.87;;
705;SDS011;21234;48.690;9.016;2023-03-04T00:17:16;37.30;;;22.40;;
705;SDS011;21234;48.690;9.016;2023-03-04T00:19:42;35.00;;;23.30;;
705;SDS011;21234;48.690;9.016;2023-03-04T00:22:09;32.97;;;20.43;;
705;SDS011;21234;48.690;9.016;2023-03-04T00:24:36;36.77;;;23.00;;
705;SDS011;21234;48.690;9.016;2023-03-04T00:27:02;38.67;;;21.50;;
705;SDS011;21234;48.690;9.016;2023-03-04T00:29:29;40.37;;;21.97;;
705;SDS011;21234;48.690;9.016;2023-03-04T00:31:57;37.30;;;23.20;;
705;SDS011;21234;48.690;9.016;2023-03-04T00:34:24;33.40;;;22.60;;
705;SDS011;21234;48.690;9.016;2023-03-04T00:36:51;40.63;;;22.80;;
705;SDS011;21234;48.690;9.016;2023-03-04T00:39:17;38.23;;;24.17;;
705;SDS011;21234;48.690;9.016;2023-03-04T00:41:44;32.47;;;21.27;;
705;SDS011;21234;48.690;9.016;2023-03-04T00:44:10;35.03;;;21.77;;
705;SDS011;21234;48.690;9.016;2023-03-04T00:46:37;34.37;;;22.13;;
705;SDS011;21234;48.690;9.016;2023-03-04T00:49:05;38.43;;;21.30;;
705;SDS011;21234;48.690;9.016;2023-03-04T00:51:32;35.93;;;20.60;;
705;SDS011;21234;48.690;9.016;2023-03-04T00:53:59;36.60;;;20.40;;
705;SDS011;21234;48.690;9.016;2023-03-04T00:56:26;31.90;;;21.33;;
705;SDS011;21234;48.690;9.016;2023-03-04T00:58:52;31.23;;;20.70;;
705;SDS011;21234;48.690;9.016;2023-03-04T01:01:19;34.97;;;21.63;;
705;SDS011;21234;48.690;9.016;2023-03-04T01:03:46;30.10;;;19.87;;
705;SDS011;21234;48.690;9.016;2023-03-04T01:06:14;31.73;;;21.00;;
705;SDS011;21234;48.690;9.016;2023-03-04T01:08:41;39.73;;;22.50;;
705;SDS011;21234;48.690;9.016;2023-03-04T01:11:07;31.67;;;20.97;;
705;SDS011;21234;48.690;9.016;2023-03-04T01:13:34;36.60;;;20.47;;
705;SDS011;21234;48.690;9.016;2023-03-04T01:16:01;34.07;;;21.37;;
705;SDS011;21234;48.690;9.016;2023-03-04T01:18:29;33.23;;;19.63;;
705;SDS011;21234;48.690;9.016;2023-03-04T01:20:56;40.77;;;22.07;;
705;SDS011;21234;48.690;9.016;2023-03-04T01:23:24;35.33;;;20.60;;
705;SDS011;21234;48.690;9.016;2023-03-04T01:25:50;37.57;;;20.90;;
705;SDS011;21234;48.690;9.016;2023-03-04T01:28:17;29.57;;;20.27;;
705;SDS011;21234;48.690;9.016;2023-03-04T01:30:44;35.83;;;20.57;;
705;SDS011;21234;48.690;9.016;2023-03-04T01:33:11;35.27;;;21.23;;
705;SDS011;21234;48.690;9.016;2023-03-04T01:35:37;37.57;;;19.47;;
705;SDS011;21234;48.690;9.016;2023-03-04T01:38:04;41.03;;;19.83;;
705;SDS011;21234;48.690;9.016;2023-03-04T01:40:32;35.80;;;20.10;;
705;SDS011;21234;48.690;9.016;2023-03-04T01:42:59;30.07;;;18.97;;
705;SDS011;21234;48.690;9.016;2023-03-04T01:45:26;28.73;;;17.43;;
705;SDS011;21234;48.690;9.016;2023-03-04T01:48:00;34.57;;;16.80;;
705;SDS011;21234;48.690;9.016;2023-03-04T01:50:29;32.77;;;19.17;;
705;SDS011;21234;48.690;9.016;2023-03-04T01:52:58;29.37;;;16.87;;
705;SDS011;21234;48.690;9.016;2023-03-04T01:55:25;31.67;;;18.80;;
705;SDS011;21234;48.690;9.016;2023-03-04T01:57:53;31.10;;;18.07;;
705;SDS011;21234;48.690;9.016;2023-03-04T02:00:22;28.33;;;16.70;;
705;SDS011;21234;48.690;9.016;2023-03-04T02:03:00;32.20;;;18.10;;
705;SDS011;21234;48.690;9.016;2023-03-04T02:05:31;23.10;;;16.50;;
705;SDS011;21234;48.690;9.016;2023-03-04T02:07:58;32.40;;;18.50;;
705;SDS011;21234;48.690;9.016;2023-03-04T02:10:25;32.20;;;19.47;;
705;SDS011;21234;48.690;9.016;2023-03-04T02:12:54;27.70;;;16.40;;
705;SDS011;21234;48.690;9.016;2023-03-04T02:15:21;27.67;;;16.30;;
705;SDS011;21234;48.690;9.016;2023-03-04T02:17:48;24.33;;;17.07;;
705;SDS011;21234;48.690;9.016;2023-03-04T02:20:22;30.87;;;17.87;;
705;SDS011;21234;48.690;9.016;2023-03-04T02:23:00;30.67;;;15.87;;
705;SDS011;21234;48.690;9.016;2023-03-04T02:25:32;31.73;;;16.93;;
705;SDS011;21234;48.690;9.016;2023-03-04T02:28:05;28.80;;;18.10;;
705;SDS011;21234;48.690;9.016;2023-03-04T02:30:31;28.37;;;16.80;;
705;SDS011;21234;48.690;9.016;2023-03-04T02:32:59;33.80;;;17.57;;
705;SDS011;21234;48.690;9.016;2023-03-04T02:35:26;33.30;;;17.47;;
705;SDS011;21234;48.690;9.016;2023-03-04T02:37:52;31.23;;;16.10;;
705;SDS011;21234;48.690;9.016;2023-03-04T02:40:21;24.37;;;16.63;;
705;SDS011;21234;48.690;9.016;2023-03-04T02:42:51;28.20;;;17.07;;
705;SDS011;21234;48.690;9.016;2023-03-04T02:45:36;35.30;;;17.00;;
705;SDS011;21234;48.690;9.016;2023-03-04T02:48:08;25.70;;;15.90;;
705;SDS011;21234;48.690;9.016;2023-03-04T02:50:37;27.50;;;18.03;;
705;SDS011;21234;48.690;9.016;2023-03-04T02:53:06;23.30;;;15.80;;
705;SDS011;21234;48.690;9.016;2023-03-04T02:55:33;23.93;;;15.30;;
705;SDS011;21234;48.690;9.016;2023-03-04T02:57:59;25.40;;;14.33;;
705;SDS011;21234;48.690;9.016;2023-03-04T03:00:26;30.53;;;16.97;;
705;SDS011;21234;48.690;9.016;2023-03-04T03:02:54;26.00;;;15.47;;
705;SDS011;21234;48.690;9.016;2023-03-04T03:05:22;24.23;;;13.67;;
705;SDS011;21234;48.690;9.016;2023-03-04T03:07:50;23.17;;;14.83;;
705;SDS011;21234;48.690;9.016;2023-03-04T03:10:17;29.13;;;15.73;;
705;SDS011;21234;48.690;9.016;2023-03-04T03:12:44;24.10;;;14.97;;
705;SDS011;21234;48.690;9.016;2023-03-04T03:15:11;27.13;;;15.67;;
705;SDS011;21234;48.690;9.016;2023-03-04T03:17:38;25.80;;;15.37;;
705;SDS011;21234;48.690;9.016;2023-03-04T03:20:07;30.90;;;17.03;;
705;SDS011;21234;48.690;9.016;2023-03-04T03:22:35;32.40;;;18.03;;
705;SDS011;21234;48.690;9.016;2023-03-04T03:25:01;29.40;;;14.67;;
705;SDS011;21234;48.690;9.016;2023-03-04T03:27:28;34.43;;;15.70;;
705;SDS011;21234;48.690;9.016;2023-03-04T03:29:54;26.57;;;14.37;;
705;SDS011;21234;48.690;9.016;2023-03-04T03:32:22;22.77;;;16.33;;
705;SDS011;21234;48.690;9.016;2023-03-04T03:34:48;24.57;;;15.53;;
705;SDS011;21234;48.690;9.016;2023-03-04T03:37:17;25.33;;;14.27;;
705;SDS011;21234;48.690;9.016;2023-03-04T03:39:43;23.80;;;13.27;;
705;SDS011;21234;48.690;9.016;2023-03-04T03:42:10;24.10;;;14.00;;
705;SDS011;21234;48.690;9.016;2023-03-04T03:44:36;25.40;;;13.40;;
705;SDS011;21234;48.690;9.016;2023-03-04T03:47:03;20.37;;;13.07;;
705;SDS011;21234;48.690;9.016;2023-03-04T03:49:30;24.20;;;13.20;;
705;SDS011;21234;48.690;9.016;2023-03-04T03:51:57;25.70;;;13.60;;
705;SDS011;21234;48.690;9.016;2023-03-04T03:54:25;22.77;;;14.23;;
705;SDS011;21234;48.690;9.016;2023-03-04T03:56:51;29.50;;;14.30;;
705;SDS011;21234;48.690;9.016;2023-03-04T03:59:18;28.13;;;14.80;;
705;SDS011;21234;48.690;9.016;2023-03-04T04:01:45;25.93;;;14.77;;
705;SDS011;21234;48.690;9.016;2023-03-04T04:04:11;32.90;;;15.67;;
705;SDS011;21234;48.690;9.016;2023-03-04T04:06:38;25.90;;;13.13;;
705;SDS011;21234;48.690;9.016;2023-03-04T04:09:05;26.80;;;15.50;;
705;SDS011;21234;48.690;9.016;2023-03-04T04:11:33;23.17;;;13.60;;
705;SDS011;21234;48.690;9.016;2023-03-04T04:13:59;23.93;;;12.80;;
705;SDS011;21234;48.690;9.016;2023-03-04T04:16:26;20.70;;;13.50;;
705;SDS011;21234;48.690;9.016;2023-03-04T04:18:53;24.13;;;14.40;;
705;SDS011;21234;48.690;9.016;2023-03-04T04:21:19;21.87;;;13.90;;
705;SDS011;21234;48.690;9.016;2023-03-04T04:23:46;25.73;;;15.53;;
705;SDS011;21234;48.690;9.016;2023-03-04T04:26:13;28.50;;;16.07;;
705;SDS011;21234;48.690;9.016;2023-03-04T04:28:41;29.40;;;16.57;;
705;SDS011;21234;48.690;9.016;2023-03-04T04:31:08;27.43;;;14.80;;
705;SDS011;21234;48.690;9.016;2023-03-04T04:33:35;28.80;;;15.20;;
705;SDS011;21234;48.690;9.016;2023-03-04T04:36:02;21.00;;;14.20;;
705;SDS011;21234;48.690;9.016;2023-03-04T04:38:29;26.47;;;13.90;;
705;SDS011;21234;48.690;9.016;2023-03-04T04:40:56;30.70;;;15.53;;
705;SDS011;21234;48.690;9.016;2023-03-04T04:43:23;28.30;;;14.33;;
705;SDS011;21234;48.690;9.016;2023-03-04T04:45:52;26.90;;;14.30;;
705;SDS011;21234;48.690;9.016;2023-03-04T04:48:18;28.50;;;16.60;;
705;SDS011;21234;48.690;9.016;2023-03-04T04:50:45;28.33;;;15.77;;
705;SDS011;21234;48.690;9.016;2023-03-04T04:53:12;28.50;;;17.13;;
705;SDS011;21234;48.690;9.016;2023-03-04T04:55:39;24.03;;;15.27;;
705;SDS011;21234;48.690;9.016;2023-03-04T04:58:05;26.47;;;13.87;;
705;SDS011;21234;48.690;9.016;2023-03-04T05:00:32;30.60;;;14.17;;
705;SDS011;21234;48.690;9.016;2023-03-04T05:03:00;25.47;;;16.10;;
705;SDS011;21234;48.690;9.016;2023-03-04T05:05:27;26.90;;;16.07;;
705;SDS011;21234;48.690;9.016;2023-03-04T05:07:54;23.57;;;14.10;;
705;SDS011;21234;48.690;9.016;2023-03-04T05:10:21;21.87;;;14.60;;
705;SDS011;21234;48.690;9.016;2023-03-04T05:12:47;30.23;;;16.47;;
705;SDS011;21234;48.690;9.016;2023-03-04T05:15:15;25.90;;;14.00;;
705;SDS011;21234;48.690;9.016;2023-03-04T05:17:41;29.27;;;15.37;;
705;SDS011;21234;48.690;9.016;2023-03-04T05:20:10;24.93;;;14.27;;
705;SDS011;21234;48.690;9.016;2023-03-04T05:22:37;25.63;;;15.20;;
705;SDS011;21234;48.690;9.016;2023-03-04T05:25:04;22.40;;;14.90;;
705;SDS011;21234;48.690;9.016;2023-03-04T05:27:32;21.07;;;14.50;;
705;SDS011;21234;48.690;9.016;2023-03-04T05:29:58;26.93;;;16.50;;
705;SDS011;21234;48.690;9.016;2023-03-04T05:32:25;28.33;;;15.60;;
705;SDS011;21234;48.690;9.016;2023-03-04T05:34:53;26.80;;;14.80;;
705;SDS011;21234;48.690;9.016;2023-03-04T05:37:22;24.43;;;15.77;;
705;SDS011;21234;48.690;9.016;2023-03-04T05:39:48;26.90;;;15.80;;
705;SDS011;21234;48.690;9.016;2023-03-04T05:42:15;23.20;;;14.93;;
705;SDS011;21234;48.690;9.016;2023-03-04T05:44:41;26.50;;;15.93;;
705;SDS011;21234;48.690;9.016;2023-03-04T05:47:08;24.30;;;15.40;;
705;SDS011;21234;48.690;9.016;2023-03-04T05:49:35;27.30;;;14.53;;
705;SDS011;21234;48.690;9.016;2023-03-04T05:52:02;30.27;;;17.30;;
705;SDS011;21234;48.690;9.016;2023-03-04T05:54:30;28.87;;;16.77;;
705;SDS011;21234;48.690;9.016;2023-03-04T05:56:56;31.60;;;17.60;;
705;SDS011;21234;48.690;9.016;2023-03-04T05:59:23;28.23;;;15.40;;
705;SDS011;21234;48.690;9.016;2023-03-04T06:01:50;24.93;;;15.30;;
705;SDS011;21234;48.690;9.016;2023-03-04T06:04:17;28.47;;;15.73;;
705;SDS011;21234;48.690;9.016;2023-03-04T06:06:43;21.20;;;14.97;;
705;SDS011;21234;48.690;9.016;2023-03-04T06:09:11;28.93;;;14.57;;
705;SDS011;21234;48.690;9.016;2023-03-04T06:11:39;25.20;;;15.87;;
705;SDS011;21234;48.690;9.016;2023-03-04T06:14:06;32.60;;;17.27;;
705;SDS011;21234;48.690;9.016;2023-03-04T06:16:33;27.27;;;15.87;;
705;SDS011;21234;48.690;9.016;2023-03-04T06:18:59;23.30;;;13.40;;
705;SDS011;21234;48.690;9.016;2023-03-04T06:21:26;24.10;;;15.37;;
705;SDS011;21234;48.690;9.016;2023-03-04T06:23:53;29.00;;;16.40;;
705;SDS011;21234;48.690;9.016;2023-03-04T06:26:19;23.27;;;15.67;;
705;SDS011;21234;48.690;9.016;2023-03-04T06:28:47;22.70;;;13.13;;
705;SDS011;21234;48.690;9.016;2023-03-04T06:31:14;23.50;;;13.77;;
705;SDS011;21234;48.690;9.016;2023-03-04T06:33:41;26.57;;;16.37;;
705;SDS011;21234;48.690;9.016;2023-03-04T06:36:08;24.23;;;14.00;;
705;SDS011;21234;48.690;9.016;2023-03-04T06:38:34;24.80;;;15.00;;
705;SDS011;21234;48.690;9.016;2023-03-04T06:41:05;21.67;;;13.57;;
705;SDS011;21234;48.690;9.016;2023-03-04T06:43:33;21.73;;;13.80;;
705;SDS011;21234;48.690;9.016;2023-03-04T06:46:01;21.50;;;14.13;;
705;SDS011;21234;48.690;9.016;2023-03-04T06:48:28;27.87;;;13.23;;
705;SDS011;21234;48.690;9.016;2023-03-04T06:50:55;26.73;;;14.50;;
705;SDS011;21234;48.690;9.016;2023-03-04T06:53:21;24.73;;;13.17;;
705;SDS011;21234;48.690;9.016;2023-03-04T06:55:48;27.90;;;16.23;;
705;SDS011;21234;48.690;9.016;2023-03-04T06:58:15;33.23;;;16.40;;
705;SDS011;21234;48.690;9.016;2023-03-04T07:00:42;28.70;;;14.27;;
705;SDS011;21234;48.690;9.016;2023-03-04T07:03:11;30.97;;;14.67;;
705;SDS011;21234;48.690;9.016;2023-03-04T07:05:38;24.40;;;14.47;;
705;SDS011;21234;48.690;9.016;2023-03-04T07:08:04;29.50;;;16.80;;
705;SDS011;21234;48.690;9.016;2023-03-04T07:10:32;27.03;;;14.07;;
705;SDS011;21234;48.690;9.016;2023-03-04T07:12:58;21.90;;;12.50;;
705;SDS011;21234;48.690;9.016;2023-03-04T07:15:25;27.80;;;15.90;;
705;SDS011;21234;48.690;9.016;2023-03-04T07:17:52;29.10;;;16.03;;
705;SDS011;21234;48.690;9.016;2023-03-04T07:20:21;28.27;;;16.27;;
705;SDS011;21234;48.690;9.016;2023-03-04T07:22:48;22.50;;;12.30;;
705;SDS011;21234;48.690;9.016;2023-03-04T07:25:14;22.43;;;13.03;;
705;SDS011;21234;48.690;9.016;2023-03-04T07:27:42;27.57;;;13.10;;
705;SDS011;21234;48.690;9.016;2023-03-04T07:30:09;24.80;;;12.10;;
705;SDS011;21234;48.690;9.016;2023-03-04T07:32:36;26.00;;;13.40;;
705;SDS011;21234;48.690;9.016;2023-03-04T07:35:03;22.37;;;11.10;;
705;SDS011;21234;48.690;9.016;2023-03-04T07:37:32;28.47;;;14.00;;
705;SDS011;21234;48.690;9.016;2023-03-04T07:39:59;22.80;;;14.20;;
705;SDS011;21234;48.690;9.016;2023-03-04T07:42:26;21.67;;;13.30;;
705;SDS011;21234;48.690;9.016;2023-03-04T07:44:52;26.07;;;13.60;;
705;SDS011;21234;48.690;9.016;2023-03-04T07:47:20;32.33;;;15.27;;
705;SDS011;21234;48.690;9.016;2023-03-04T07:49:47;31.07;;;15.27;;
705;SDS011;21234;48.690;9.016;2023-03-04T07:52:13;27.17;;;17.43;;
705;SDS011;21234;48.690;9.016;2023-03-04T07:54:41;27.40;;;18.23;;
705;SDS011;21234;48.690;9.016;2023-03-04T07:57:08;26.00;;;13.07;;
705;SDS011;21234;48.690;9.016;2023-03-04T07:59:35;27.00;;;12.97;;
705;SDS011;21234;48.690;9.016;2023-03-04T08:02:01;18.83;;;10.27;;
705;SDS011;21234;48.690;9.016;2023-03-04T08:04:28;23.53;;;12.60;;
705;SDS011;21234;48.690;9.016;2023-03-04T08:06:55;22.10;;;12.73;;
705;SDS011;21234;48.690;9.016;2023-03-04T08:09:22;21.33;;;12.13;;
705;SDS011;21234;48.690;9.016;2023-03-04T08:11:50;21.97;;;11.60;;
705;SDS011;21234;48.690;9.016;2023-03-04T08:14:17;20.97;;;11.70;;
705;SDS011;21234;48.690;9.016;2023-03-04T08:16:44;19.90;;;12.57;;
705;SDS011;21234;48.690;9.016;2023-03-04T08:19:11;18.93;;;10.50;;
705;SDS011;21234;48.690;9.016;2023-03-04T08:21:38;21.20;;;11.63;;
705;SDS011;21234;48.690;9.016;2023-03-04T08:24:05;17.77;;;11.10;;
705;SDS011;21234;48.690;9.016;2023-03-04T08:26:33;24.77;;;12.03;;
705;SDS011;21234;48.690;9.016;2023-03-04T08:29:04;17.50;;;10.50;;
705;SDS011;21234;48.690;9.016;2023-03-04T08:31:31;21.97;;;12.70;;
705;SDS011;21234;48.690;9.016;2023-03-04T08:33:58;25.27;;;14.20;;
705;SDS011;21234;48.690;9.016;2023-03-04T08:36:25;21.67;;;12.20;;
705;SDS011;21234;48.690;9.016;2023-03-04T08:38:53;26.53;;;11.30;;
705;SDS011;21234;48.690;9.016;2023-03-04T08:41:19;22.87;;;13.37;;
705;SDS011;21234;48.690;9.016;2023-03-04T08:43:47;22.27;;;12.20;;
705;SDS011;21234;48.690;9.016;2023-03-04T08:46:15;22.73;;;13.80;;
705;SDS011;21234;48.690;9.016;2023-03-04T08:48:41;24.30;;;13.67;;
705;SDS011;21234;48.690;9.016;2023-03-04T08:51:09;24.63;;;13.90;;
705;SDS011;21234;48.690;9.016;2023-03-04T08:53:38;24.50;;;13.77;;
705;SDS011;21234;48.690;9.016;2023-03-04T08:56:05;21.93;;;11.33;;
705;SDS011;21234;48.690;9.016;2023-03-04T08:58:33;27.67;;;13.07;;
705;SDS011;21234;48.690;9.016;2023-03-04T09:01:00;29.70;;;13.47;;
705;SDS011;21234;48.690;9.016;2023-03-04T09:03:29;20.53;;;12.30;;
705;SDS011;21234;48.690;9.016;2023-03-04T09:05:56;20.63;;;11.57;;
705;SDS011;21234;48.690;9.016;2023-03-04T09:08:22;20.00;;;11.23;;
705;SDS011;21234;48.690;9.016;2023-03-04T09:10:51;23.30;;;12.37;;
705;SDS011;21234;48.690;9.016;2023-03-04T09:13:18;20.87;;;11.40;;
705;SDS011;21234;48.690;9.016;2023-03-04T09:15:45;18.70;;;11.20;;
705;SDS011;21234;48.690;9.016;2023-03-04T09:18:14;20.03;;;11.97;;
705;SDS011;21234;48.690;9.016;2023-03-04T09:20:43;21.63;;;11.83;;
705;SDS011;21234;48.690;9.016;2023-03-04T09:23:11;20.97;;;11.57;;
705;SDS011;21234;48.690;9.016;2023-03-04T09:25:38;19.07;;;13.13;;
705;SDS011;21234;48.690;9.016;2023-03-04T09:28:05;24.63;;;12.27;;
705;SDS011;21234;48.690;9.016;2023-03-04T09:30:32;19.17;;;11.30;;
705;SDS011;21234;48.690;9.016;2023-03-04T09:32:59;23.23;;;14.73;;
705;SDS011;21234;48.690;9.016;2023-03-04T09:35:26;27.50;;;15.90;;
705;SDS011;21234;48.690;9.016;2023-03-04T09:37:55;21.10;;;12.47;;
705;SDS011;21234;48.690;9.016;2023-03-04T09:40:23;29.27;;;14.07;;
705;SDS011;21234;48.690;9.016;2023-03-04T09:42:53;22.77;;;13.83;;
705;SDS011;21234;48.690;9.016;2023-03-04T09:45:26;24.50;;;15.40;;
705;SDS011;21234;48.690;9.016;2023-03-04T09:47:57;23.23;;;13.10;;
705;SDS011;21234;48.690;9.016;2023-03-04T09:50:24;29.40;;;15.00;;
705;SDS011;21234;48.690;9.016;2023-03-04T09:53:01;24.20;;;12.70;;
705;SDS011;21234;48.690;9.016;2023-03-04T09:55:33;31.17;;;14.50;;
705;SDS011;21234;48.690;9.016;2023-03-04T09:58:04;29.93;;;15.00;;
705;SDS011;21234;48.690;9.016;2023-03-04T10:00:38;24.97;;;14.60;;
705;SDS011;21234;48.690;9.016;2023-03-04T10:03:15;30.50;;;15.30;;
705;SDS011;21234;48.690;9.016;2023-03-04T10:05:47;26.17;;;15.90;;
705;SDS011;21234;48.690;9.016;2023-03-04T10:08:30;27.40;;;16.10;;
705;SDS011;21234;48.690;9.016;2023-03-04T10:11:05;27.47;;;13.67;;
705;SDS011;21234;48.690;9.016;2023-03-04T10:13:39;28.47;;;15.40;;
705;SDS011;21234;48.690;9.016;2023-03-04T10:16:15;23.27;;;13.97;;
705;SDS011;21234;48.690;9.016;2023-03-04T10:18:46;23.27;;;14.60;;
705;SDS011;21234;48.690;9.016;2023-03-04T10:21:19;26.53;;;13.43;;
705;SDS011;21234;48.690;9.016;2023-03-04T10:23:50;30.10;;;15.10;;
705;SDS011;21234;48.690;9.016;2023-03-04T10:26:19;29.00;;;15.53;;
705;SDS011;21234;48.690;9.016;2023-03-04T10:28:48;29.97;;;16.67;;
705;SDS011;21234;48.690;9.016;2023-03-04T10:31:16;25.70;;;15.30;;
705;SDS011;21234;48.690;9.016;2023-03-04T10:33:47;31.13;;;17.67;;
705;SDS011;21234;48.690;9.016;2023-03-04T10:36:23;32.90;;;18.10;;
705;SDS011;21234;48.690;9.016;2023-03-04T10:39:04;38.43;;;17.60;;
705;SDS011;21234;48.690;9.016;2023-03-04T10:41:34;25.90;;;16.63;;
705;SDS011;21234;48.690;9.016;2023-03-04T10:44:02;29.23;;;15.40;;
705;SDS011;21234;48.690;9.016;2023-03-04T10:46:30;26.27;;;15.63;;
705;SDS011;21234;48.690;9.016;2023-03-04T10:48:57;31.07;;;16.60;;
705;SDS011;21234;48.690;9.016;2023-03-04T10:51:25;31.93;;;18.20;;
705;SDS011;21234;48.690;9.016;2023-03-04T10:53:55;38.33;;;17.97;;
705;SDS011;21234;48.690;9.016;2023-03-04T10:56:32;29.20;;;16.90;;
705;SDS011;21234;48.690;9.016;2023-03-04T11:02:12;31.30;;;17.23;;
705;SDS011;21234;48.690;9.016;2023-03-04T11:04:41;29.33;;;18.50;;
705;SDS011;21234;48.690;9.016;2023-03-04T11:07:14;32.33;;;16.37;;
705;SDS011;21234;48.690;9.016;2023-03-04T11:09:42;34.30;;;19.70;;
705;SDS011;21234;48.690;9.016;2023-03-04T11:12:12;32.00;;;18.10;;
705;SDS011;21234;48.690;9.016;2023-03-04T11:14:40;36.27;;;17.93;;
705;SDS011;21234;48.690;9.016;2023-03-04T11:17:20;32.60;;;17.37;;
705;SDS011;21234;48.690;9.016;2023-03-04T11:19:51;34.63;;;17.60;;
705;SDS011;21234;48.690;9.016;2023-03-04T11:22:22;35.00;;;18.03;;
705;SDS011;21234;48.690;9.016;2023-03-04T11:24:54;30.20;;;17.00;;
705;SDS011;21234;48.690;9.016;2023-03-04T11:27:28;34.27;;;17.00;;
705;SDS011;21234;48.690;9.016;2023-03-04T11:30:03;33.57;;;17.77;;
705;SDS011;21234;48.690;9.016;2023-03-04T11:32:50;25.20;;;17.63;;
705;SDS011;21234;48.690;9.016;2023-03-04T11:35:22;33.77;;;16.60;;
705;SDS011;21234;48.690;9.016;2023-03-04T11:37:56;32.93;;;17.80;;
705;SDS011;21234;48.690;9.016;2023-03-04T11:40:32;37.80;;;18.80;;
705;SDS011;21234;48.690;9.016;2023-03-04T11:43:06;28.27;;;16.83;;
705;SDS011;21234;48.690;9.016;2023-03-04T11:45:45;29.97;;;16.93;;
705;SDS011;21234;48.690;9.016;2023-03-04T11:48:32;29.40;;;16.43;;
705;SDS011;21234;48.690;9.016;2023-03-04T11:51:11;31.57;;;16.20;;
705;SDS011;21234;48.690;9.016;2023-03-04T11:53:49;27.70;;;15.40;;
705;SDS011;21234;48.690;9.016;2023-03-04T11:56:31;32.17;;;19.60;;
705;SDS011;21234;48.690;9.016;2023-03-04T11:59:16;32.90;;;17.47;;
705;SDS011;21234;48.690;9.016;2023-03-04T12:02:13;29.83;;;18.60;;
705;SDS011;21234;48.690;9.016;2023-03-04T12:07:45;31.73;;;17.70;;
705;SDS011;21234;48.690;9.016;2023-03-04T12:10:22;37.47;;;18.97;;
705;SDS011;21234;48.690;9.016;2023-03-04T12:13:11;32.50;;;18.70;;
705;SDS011;21234;48.690;9.016;2023-03-04T12:15:53;33.80;;;18.60;;
705;SDS011;21234;48.690;9.016;2023-03-04T12:18:37;30.13;;;16.60;;
705;SDS011;21234;48.690;9.016;2023-03-04T12:21:18;34.20;;;18.97;;
705;SDS011;21234;48.690;9.016;2023-03-04T12:24:06;28.80;;;17.40;;
705;SDS011;21234;48.690;9.016;2023-03-04T12:26:54;32.20;;;17.80;;
705;SDS011;21234;48.690;9.016;2023-03-04T12:29:28;32.83;;;17.03;;
705;SDS011;21234;48.690;9.016;2023-03-04T12:32:08;28.03;;;17.57;;
705;SDS011;21234;48.690;9.016;2023-03-04T12:34:53;33.30;;;18.53;;
705;SDS011;21234;48.690;9.016;2023-03-04T12:37:36;35.10;;;18.07;;
705;SDS011;21234;48.690;9.016;2023-03-04T12:40:22;32.90;;;18.50;;
705;SDS011;21234;48.690;9.016;2023-03-04T12:45:52;31.67;;;18.70;;
705;SDS011;21234;48.690;9.016;2023-03-04T12:48:30;37.83;;;19.47;;
705;SDS011;21234;48.690;9.016;2023-03-04T12:51:04;30.93;;;16.10;;
705;SDS011;21234;48.690;9.016;2023-03-04T12:53:42;30.37;;;17.73;;
705;SDS011;21234;48.690;9.016;2023-03-04T12:56:21;30.10;;;18.60;;
705;SDS011;21234;48.690;9.016;2023-03-04T12:58:51;25.80;;;16.30;;
705;SDS011;21234;48.690;9.016;2023-03-04T13:01:21;28.37;;;16.60;;
705;SDS011;21234;48.690;9.016;2023-03-04T13:03:54;32.87;;;16.60;;
705;SDS011;21234;48.690;9.016;2023-03-04T13:06:29;29.13;;;16.07;;
705;SDS011;21234;48.690;9.016;2023-03-04T13:09:02;30.33;;;16.93;;
705;SDS011;21234;48.690;9.016;2023-03-04T13:11:49;31.23;;;17.67;;
705;SDS011;21234;48.690;9.016;2023-03-04T13:17:00;38.00;;;22.07;;
705;SDS011;21234;48.690;9.016;2023-03-04T13:19:50;26.70;;;18.17;;
705;SDS011;21234;48.690;9.016;2023-03-04T13:28:14;30.03;;;16.83;;
705;SDS011;21234;48.690;9.016;2023-03-04T13:33:50;30.93;;;18.17;;
705;SDS011;21234;48.690;9.016;2023-03-04T13:36:29;34.30;;;20.77;;
705;SDS011;21234;48.690;9.016;2023-03-04T13:42:02;34.47;;;18.50;;
705;SDS011;21234;48.690;9.016;2023-03-04T13:47:42;33.50;;;18.17;;
705;SDS011;21234;48.690;9.016;2023-03-04T13:53:21;34.57;;;18.53;;
705;SDS011;21234;48.690;9.016;2023-03-04T13:56:05;27.47;;;18.50;;
705;SDS011;21234;48.690;9.016;2023-03-04T13:58:37;44.17;;;23.20;;
705;SDS011;21234;48.690;9.016;2023-03-04T14:01:04;37.23;;;20.30;;
705;SDS011;21234;48.690;9.016;2023-03-04T14:03:47;35.97;;;18.97;;
705;SDS011;21234;48.690;9.016;2023-03-04T14:06:15;40.63;;;18.80;;
705;SDS011;21234;48.690;9.016;2023-03-04T14:08:46;41.63;;;22.37;;
705;SDS011;21234;48.690;9.016;2023-03-04T14:11:15;37.93;;;17.60;;
705;SDS011;21234;48.690;9.016;2023-03-04T14:13:46;36.70;;;19.00;;
705;SDS011;21234;48.690;9.016;2023-03-04T14:16:17;35.20;;;18.53;;
705;SDS011;21234;48.690;9.016;2023-03-04T14:18:46;33.50;;;18.00;;
705;SDS011;21234;48.690;9.016;2023-03-04T14:21:22;27.03;;;16.60;;
705;SDS011;21234;48.690;9.016;2023-03-04T14:23:59;27.87;;;16.70;;
705;SDS011;21234;48.690;9.016;2023-03-04T14:26:27;32.70;;;16.80;;
705;SDS011;21234;48.690;9.016;2023-03-04T14:28:55;28.60;;;16.43;;
705;SDS011;21234;48.690;9.016;2023-03-04T14:31:24;26.93;;;15.17;;
705;SDS011;21234;48.690;9.016;2023-03-04T14:33:54;32.23;;;16.63;;
705;SDS011;21234;48.690;9.016;2023-03-04T14:36:26;28.47;;;16.37;;
705;SDS011;21234;48.690;9.016;2023-03-04T14:39:14;28.40;;;15.30;;
705;SDS011;21234;48.690;9.016;2023-03-04T14:41:43;31.37;;;15.07;;
705;SDS011;21234;48.690;9.016;2023-03-04T14:44:13;34.83;;;16.97;;
705;SDS011;21234;48.690;9.016;2023-03-04T14:46:49;31.13;;;14.93;;
705;SDS011;21234;48.690;9.016;2023-03-04T14:49:21;27.53;;;15.27;;
705;SDS011;21234;48.690;9.016;2023-03-04T14:51:48;28.23;;;16.43;;
705;SDS011;21234;48.690;9.016;2023-03-04T14:54:31;31.97;;;15.50;;
705;SDS011;21234;48.690;9.016;2023-03-04T14:57:15;25.77;;;14.57;;
705;SDS011;21234;48.690;9.016;2023-03-04T14:59:48;29.97;;;15.27;;
705;SDS011;21234;48.690;9.016;2023-03-04T15:02:20;28.17;;;14.37;;
705;SDS011;21234;48.690;9.016;2023-03-04T15:04:55;22.67;;;14.80;;
705;SDS011;21234;48.690;9.016;2023-03-04T15:07:28;21.73;;;13.40;;
705;SDS011;21234;48.690;9.016;2023-03-04T15:09:58;32.00;;;14.73;;
705;SDS011;21234;48.690;9.016;2023-03-04T15:12:28;26.00;;;14.43;;
705;SDS011;21234;48.690;9.016;2023-03-04T15:14:57;27.83;;;16.27;;
705;SDS011;21234;48.690;9.016;2023-03-04T15:17:30;24.37;;;14.47;;
705;SDS011;21234;48.690;9.016;2023-03-04T15:22:59;28.77;;;15.10;;
705;SDS011;21234;48.690;9.016;2023-03-04T15:25:30;29.47;;;15.93;;
705;SDS011;21234;48.690;9.016;2023-03-04T15:27:56;32.80;;;16.10;;
705;SDS011;21234;48.690;9.016;2023-03-04T15:30:24;31.60;;;15.23;;
705;SDS011;21234;48.690;9.016;2023-03-04T15:32:53;29.67;;;14.97;;
705;SDS011;21234;48.690;9.016;2023-03-04T15:35:20;30.47;;;15.70;;